createdAt,value
2017-12-08T00:00:16.284Z,1.30
2017-12-08T00:01:17.584Z,1.30
2017-12-08T00:02:18.884Z,1.40
2017-12-08T00:03:20.178Z,1.07
2017-12-08T00:04:21.474Z,1.20
2017-12-08T00:05:22.788Z,1.00
2017-12-08T00:06:24.092Z,1.23
2017-12-08T00:07:25.432Z,2.00
2017-12-08T00:08:26.736Z,1.30
2017-12-08T00:09:28.062Z,1.20
2017-12-08T00:10:29.386Z,1.77
2017-12-08T00:11:31.415Z,0.90
2017-12-08T00:12:32.719Z,1.00
2017-12-08T00:13:34.016Z,1.00
2017-12-08T00:14:35.325Z,1.10
2017-12-08T00:15:36.920Z,1.10
2017-12-08T00:16:38.238Z,1.23
2017-12-08T00:17:39.530Z,0.90
2017-12-08T00:18:40.837Z,0.80
2017-12-08T00:19:42.148Z,1.03
2017-12-08T00:20:43.704Z,1.00
2017-12-08T00:21:45.001Z,0.93
2017-12-08T00:22:46.302Z,0.80
2017-12-08T00:23:47.572Z,0.80
2017-12-08T00:24:49.620Z,0.90
2017-12-08T00:25:51.881Z,0.90
2017-12-08T00:26:53.941Z,1.00
2017-12-08T00:27:55.968Z,1.10
2017-12-08T00:28:57.264Z,2.40
2017-12-08T00:29:59.284Z,0.97
2017-12-08T00:31:00.842Z,1.10
2017-12-08T00:32:02.140Z,1.00
2017-12-08T00:33:03.462Z,1.43
2017-12-08T00:34:04.763Z,1.13
2017-12-08T00:35:06.072Z,1.40
2017-12-08T00:36:07.636Z,1.30
2017-12-08T00:37:08.916Z,1.17
2017-12-08T00:38:10.940Z,1.63
2017-12-08T00:39:12.238Z,1.20
2017-12-08T00:40:13.540Z,1.30
2017-12-08T00:41:15.102Z,1.17
2017-12-08T00:42:16.395Z,1.37
2017-12-08T00:43:17.702Z,1.37
2017-12-08T00:44:18.994Z,1.50
2017-12-08T00:45:20.276Z,0.97
2017-12-08T00:46:21.844Z,1.13
2017-12-08T00:47:23.869Z,0.90
2017-12-08T00:48:25.146Z,1.10
2017-12-08T00:49:26.441Z,1.00
2017-12-08T00:50:27.740Z,0.90
2017-12-08T00:51:29.312Z,1.13
2017-12-08T00:52:30.604Z,0.90
2017-12-08T00:53:32.632Z,0.70
2017-12-08T00:54:33.922Z,1.40
2017-12-08T00:55:35.960Z,1.00
2017-12-08T00:56:37.268Z,0.90
2017-12-08T00:57:38.571Z,0.97
2017-12-08T00:58:39.853Z,0.90
2017-12-08T00:59:41.148Z,0.77
2017-12-08T01:00:43.182Z,0.77
2017-12-08T01:01:44.479Z,0.80
2017-12-08T01:02:45.772Z,0.70
2017-12-08T01:03:47.089Z,0.70
2017-12-08T01:04:48.402Z,0.63
2017-12-08T01:05:49.708Z,0.70
2017-12-08T01:06:52.008Z,1.00
2017-12-08T01:07:53.303Z,0.90
2017-12-08T01:08:54.612Z,0.80
2017-12-08T01:09:55.898Z,0.87
2017-12-08T01:10:57.172Z,0.80
2017-12-08T01:11:58.489Z,0.80
2017-12-08T01:13:00.512Z,0.80
2017-12-08T01:14:01.802Z,0.70
2017-12-08T01:15:03.128Z,0.80
2017-12-08T01:16:05.144Z,0.80
2017-12-08T01:17:06.709Z,0.97
2017-12-08T01:18:07.990Z,0.90
2017-12-08T01:19:10.026Z,1.10
2017-12-08T01:20:11.317Z,1.03
2017-12-08T01:21:12.618Z,0.50
2017-12-08T01:22:14.158Z,0.90
2017-12-08T01:23:15.444Z,0.80
2017-12-08T01:24:16.748Z,0.70
2017-12-08T01:25:18.055Z,0.60
2017-12-08T01:26:19.341Z,0.60
2017-12-08T01:27:21.643Z,0.70
2017-12-08T01:28:22.926Z,0.60
2017-12-08T01:29:24.224Z,0.50
2017-12-08T01:30:25.512Z,0.60
2017-12-08T01:31:26.794Z,0.63
2017-12-08T01:32:29.128Z,0.77
2017-12-08T01:33:30.423Z,0.70
2017-12-08T01:34:31.700Z,0.70
2017-12-08T01:35:33.020Z,0.70
2017-12-08T01:36:34.322Z,0.60
2017-12-08T01:37:35.894Z,0.70
2017-12-08T01:38:37.234Z,0.73
2017-12-08T01:39:38.559Z,0.60
2017-12-08T01:40:40.594Z,0.70
2017-12-08T01:41:41.866Z,0.50
2017-12-08T01:42:43.907Z,0.60
2017-12-08T01:43:45.215Z,0.50
2017-12-08T01:44:46.516Z,0.60
2017-12-08T01:45:47.827Z,0.50
2017-12-08T01:46:49.144Z,0.50
2017-12-08T01:47:50.729Z,0.60
2017-12-08T01:48:52.026Z,0.73
2017-12-08T01:49:53.340Z,0.80
2017-12-08T01:50:54.654Z,0.70
2017-12-08T01:51:55.966Z,0.60
2017-12-08T01:52:57.306Z,0.80
2017-12-08T01:53:58.656Z,0.70
2017-12-08T01:54:59.976Z,0.70
2017-12-08T01:56:01.280Z,0.60
2017-12-08T01:57:03.364Z,0.80
2017-12-08T01:58:04.950Z,0.70
2017-12-08T01:59:06.268Z,0.63
2017-12-08T02:00:07.602Z,0.70
2017-12-08T02:01:08.881Z,3.30
2017-12-08T02:02:10.178Z,17.43
2017-12-08T02:03:11.742Z,20.43
2017-12-08T02:04:13.048Z,14.53
2017-12-08T02:05:15.092Z,24.03
2017-12-08T02:06:16.416Z,32.63
2017-12-08T02:07:17.730Z,27.67
2017-12-08T02:08:19.308Z,27.77
2017-12-08T02:09:20.622Z,29.33
2017-12-08T02:10:21.957Z,14.80
2017-12-08T02:11:23.276Z,10.93
2017-12-08T02:12:25.324Z,9.07
2017-12-08T02:13:26.904Z,8.70
2017-12-08T02:14:28.208Z,8.90
2017-12-08T02:15:29.550Z,5.50
2017-12-08T02:16:30.843Z,2.30
2017-12-08T02:17:32.134Z,1.70
2017-12-08T02:18:33.710Z,3.10
2017-12-08T02:19:35.760Z,3.93
2017-12-08T02:20:37.070Z,2.40
2017-12-08T02:21:38.404Z,1.60
2017-12-08T02:22:39.734Z,1.40
2017-12-08T02:23:41.333Z,2.00
2017-12-08T02:24:42.655Z,3.40
2017-12-08T02:25:43.980Z,2.80
2017-12-08T02:26:45.294Z,3.23
2017-12-08T02:27:46.614Z,5.30
2017-12-08T02:28:48.952Z,11.37
2017-12-08T02:29:50.278Z,8.40
2017-12-08T02:30:51.598Z,5.40
2017-12-08T02:31:52.962Z,2.47
2017-12-08T02:32:54.286Z,3.73
2017-12-08T02:33:55.880Z,2.60
2017-12-08T02:34:57.210Z,2.40
2017-12-08T02:35:58.540Z,2.07
2017-12-08T02:36:59.864Z,2.20
2017-12-08T02:38:01.178Z,2.50
2017-12-08T02:39:03.534Z,2.70
2017-12-08T02:40:04.880Z,2.77
2017-12-08T02:41:06.153Z,2.97
2017-12-08T02:42:07.443Z,2.60
2017-12-08T02:43:08.760Z,2.37
2017-12-08T02:44:10.362Z,2.33
2017-12-08T02:45:13.220Z,2.40
2017-12-08T02:46:14.538Z,1.90
2017-12-08T02:47:15.865Z,1.50
2017-12-08T02:48:17.142Z,1.10
2017-12-08T02:49:18.729Z,1.00
2017-12-08T02:50:20.782Z,1.17
2017-12-08T02:51:22.836Z,1.60
2017-12-08T02:52:24.140Z,2.17
2017-12-08T02:53:25.436Z,3.77
2017-12-08T02:54:27.764Z,2.07
2017-12-08T02:55:29.092Z,1.80
2017-12-08T02:56:30.424Z,1.60
2017-12-08T02:57:32.484Z,2.07
2017-12-08T02:58:33.792Z,3.30
2017-12-08T02:59:36.171Z,3.60
2017-12-08T03:00:37.504Z,3.03
2017-12-08T03:01:39.552Z,2.40
2017-12-08T03:02:41.584Z,1.60
2017-12-08T03:03:42.886Z,1.30
2017-12-08T03:04:44.448Z,1.10
2017-12-08T03:05:45.766Z,0.77
2017-12-08T03:06:47.087Z,0.70
2017-12-08T03:07:49.184Z,0.73
2017-12-08T03:08:50.516Z,0.90
2017-12-08T03:09:52.104Z,0.70
2017-12-08T03:10:54.152Z,0.80
2017-12-08T03:11:55.478Z,0.80
2017-12-08T03:12:56.796Z,0.80
2017-12-08T03:13:58.869Z,0.87
2017-12-08T03:15:00.535Z,0.70
2017-12-08T03:16:01.858Z,0.70
2017-12-08T03:17:03.166Z,0.80
2017-12-08T03:18:04.464Z,0.73
2017-12-08T03:19:05.750Z,0.80
2017-12-08T03:20:07.294Z,0.80
2017-12-08T03:21:08.604Z,0.77
2017-12-08T03:22:09.946Z,0.80
2017-12-08T03:23:11.245Z,0.70
2017-12-08T03:24:13.302Z,0.73
2017-12-08T03:25:14.866Z,0.70
2017-12-08T03:26:16.932Z,0.80
2017-12-08T03:27:18.992Z,1.00
2017-12-08T03:28:21.024Z,0.90
2017-12-08T03:29:22.342Z,0.70
2017-12-08T03:30:23.953Z,0.83
2017-12-08T03:31:25.263Z,0.80
2017-12-08T03:32:26.546Z,0.80
2017-12-08T03:33:27.828Z,1.00
2017-12-08T03:34:29.102Z,0.83
2017-12-08T03:35:31.412Z,1.00
2017-12-08T03:36:32.778Z,0.80
2017-12-08T03:37:34.076Z,0.93
2017-12-08T03:38:35.400Z,1.57
2017-12-08T03:39:37.468Z,1.43
2017-12-08T03:40:39.835Z,1.00
2017-12-08T03:41:41.991Z,0.90
2017-12-08T03:42:44.052Z,0.90
2017-12-08T03:43:46.108Z,1.13
2017-12-08T03:44:48.174Z,2.20
2017-12-08T03:45:50.500Z,1.43
2017-12-08T03:46:51.804Z,1.30
2017-12-08T03:47:53.114Z,1.33
2017-12-08T03:48:54.428Z,1.03
2017-12-08T03:49:55.760Z,0.97
2017-12-08T03:50:57.066Z,1.50
2017-12-08T03:51:58.350Z,0.90
2017-12-08T03:52:59.663Z,1.13
2017-12-08T03:54:00.973Z,1.10
2017-12-08T03:55:03.036Z,0.80
2017-12-08T03:56:05.342Z,0.80
2017-12-08T03:57:06.648Z,0.97
2017-12-08T03:58:08.692Z,1.33
2017-12-08T03:59:10.002Z,0.80
2017-12-08T04:00:11.335Z,0.60
2017-12-08T04:01:12.899Z,0.70
2017-12-08T04:02:14.216Z,0.70
2017-12-08T04:03:15.519Z,0.70
2017-12-08T04:04:16.796Z,0.70
2017-12-08T04:05:18.138Z,1.03
2017-12-08T04:06:19.723Z,1.23
2017-12-08T04:07:21.048Z,0.80
2017-12-08T04:08:22.396Z,0.80
2017-12-08T04:09:23.706Z,1.30
2017-12-08T04:10:25.782Z,0.93
2017-12-08T04:11:27.412Z,1.00
2017-12-08T04:12:29.488Z,0.90
2017-12-08T04:13:30.805Z,0.97
2017-12-08T04:14:32.876Z,1.00
2017-12-08T04:15:34.921Z,1.20
2017-12-08T04:16:37.263Z,1.13
2017-12-08T04:17:38.584Z,1.83
2017-12-08T04:18:39.907Z,0.87
2017-12-08T04:19:41.361Z,2.03
2017-12-08T04:20:42.705Z,3.73
2017-12-08T04:21:44.311Z,10.40
2017-12-08T04:22:45.602Z,8.23
2017-12-08T04:23:46.916Z,8.30
2017-12-08T04:24:48.960Z,10.63
2017-12-08T04:25:51.032Z,7.33
2017-12-08T04:26:53.352Z,4.50
2017-12-08T04:27:54.663Z,1.97
2017-12-08T04:28:55.982Z,2.03
2017-12-08T04:29:58.018Z,1.67
2017-12-08T04:30:59.318Z,1.27
2017-12-08T04:32:01.018Z,3.43
2017-12-08T04:33:02.352Z,3.53
2017-12-08T04:34:03.666Z,1.70
2017-12-08T04:35:04.984Z,1.07
2017-12-08T04:36:06.323Z,0.80
2017-12-08T04:37:07.990Z,1.00
2017-12-08T04:38:09.302Z,0.80
2017-12-08T04:39:11.600Z,0.87
2017-12-08T04:40:12.924Z,0.80
2017-12-08T04:41:14.268Z,0.70
2017-12-08T04:42:15.867Z,0.80
2017-12-08T04:43:24.220Z,1.00
2017-12-08T04:44:26.328Z,0.83
2017-12-08T04:45:27.664Z,0.80
2017-12-08T04:46:29.002Z,0.87
2017-12-08T04:47:30.608Z,0.80
2017-12-08T04:48:32.652Z,0.83
2017-12-08T04:49:33.980Z,0.90
2017-12-08T04:50:35.368Z,0.80
2017-12-08T04:51:37.422Z,0.80
2017-12-08T04:52:39.776Z,0.80
2017-12-08T04:53:41.068Z,1.00
2017-12-08T04:54:42.401Z,1.57
2017-12-08T04:55:43.708Z,1.60
2017-12-08T04:56:45.836Z,1.97
2017-12-08T04:57:47.460Z,1.93
2017-12-08T04:58:48.772Z,1.83
2017-12-08T04:59:50.866Z,2.40
2017-12-08T05:00:52.214Z,2.20
2017-12-08T05:01:53.518Z,2.13
2017-12-08T05:02:55.872Z,1.80
2017-12-08T05:03:57.960Z,2.30
2017-12-08T05:04:59.308Z,5.00
2017-12-08T05:06:00.647Z,6.47
2017-12-08T05:07:01.964Z,9.87
2017-12-08T05:08:03.576Z,7.63
2017-12-08T05:09:04.872Z,7.87
2017-12-08T05:10:06.196Z,4.17
2017-12-08T05:11:07.520Z,2.40
2017-12-08T05:12:08.849Z,1.27
2017-12-08T05:13:10.428Z,1.47
2017-12-08T05:14:11.762Z,1.00
2017-12-08T05:15:13.121Z,0.90
2017-12-08T05:16:15.239Z,0.90
2017-12-08T05:17:16.570Z,0.90
2017-12-08T05:18:18.177Z,1.27
2017-12-08T05:19:19.496Z,0.80
2017-12-08T05:20:20.844Z,0.70
2017-12-08T05:21:22.200Z,1.03
2017-12-08T05:22:23.540Z,1.00
2017-12-08T05:23:25.144Z,1.00
2017-12-08T05:24:26.540Z,1.07
2017-12-08T05:25:27.884Z,0.90
2017-12-08T05:26:29.204Z,0.83
2017-12-08T05:27:30.522Z,1.10
2017-12-08T05:28:31.964Z,1.70
2017-12-08T05:29:33.287Z,1.10
2017-12-08T05:30:34.618Z,1.10
2017-12-08T05:31:36.656Z,1.20
2017-12-08T05:32:37.978Z,1.20
2017-12-08T05:33:39.616Z,1.10
2017-12-08T05:34:40.924Z,1.03
2017-12-08T05:35:42.244Z,1.10
2017-12-08T05:36:44.318Z,1.20
2017-12-08T05:37:46.442Z,1.37
2017-12-08T05:38:48.025Z,1.43
2017-12-08T05:39:50.078Z,1.23
2017-12-08T05:40:51.406Z,1.60
2017-12-08T05:41:52.726Z,1.83
2017-12-08T05:42:54.066Z,3.63
2017-12-08T05:43:55.658Z,1.10
2017-12-08T05:44:57.727Z,1.00
2017-12-08T05:45:59.817Z,1.07
2017-12-08T05:47:01.164Z,1.10
2017-12-08T05:48:02.496Z,0.93
2017-12-08T05:49:04.093Z,1.00
2017-12-08T05:50:05.430Z,0.90
2017-12-08T05:51:06.722Z,1.30
2017-12-08T05:52:08.070Z,1.50
2017-12-08T05:53:09.379Z,1.60
2017-12-08T05:54:10.694Z,1.97
2017-12-08T05:55:12.048Z,1.80
2017-12-08T05:56:13.381Z,1.70
2017-12-08T05:57:14.695Z,1.40
2017-12-08T05:58:15.988Z,2.67
2017-12-08T05:59:17.579Z,2.00
2017-12-08T06:00:18.912Z,3.13
2017-12-08T06:01:21.027Z,11.20
2017-12-08T06:02:22.368Z,10.80
2017-12-08T06:03:23.684Z,9.20
2017-12-08T06:04:25.242Z,12.90
2017-12-08T06:05:26.547Z,11.90
2017-12-08T06:06:28.611Z,10.67
2017-12-08T06:07:29.928Z,10.27
2017-12-08T06:08:31.284Z,12.67
2017-12-08T06:09:33.611Z,14.33
2017-12-08T06:10:34.919Z,13.67
2017-12-08T06:11:36.296Z,13.40
2017-12-08T06:12:37.608Z,11.43
2017-12-08T06:13:38.940Z,10.17
2017-12-08T06:14:40.274Z,10.60
2017-12-08T06:15:42.328Z,9.23
2017-12-08T06:16:44.396Z,11.33
2017-12-08T06:17:46.456Z,9.80
2017-12-08T06:18:47.800Z,7.53
2017-12-08T06:19:50.142Z,7.73
2017-12-08T06:20:51.462Z,6.67
2017-12-08T06:21:52.800Z,3.40
2017-12-08T06:22:54.128Z,2.10
2017-12-08T06:23:55.482Z,2.10
2017-12-08T06:24:56.865Z,1.80
2017-12-08T06:25:58.302Z,2.87
2017-12-08T06:26:59.708Z,3.87
2017-12-08T06:28:01.229Z,3.87
2017-12-08T06:29:02.702Z,4.13
2017-12-08T06:30:04.306Z,4.70
2017-12-08T06:31:06.427Z,4.43
2017-12-08T06:32:07.907Z,6.63
2017-12-08T06:33:09.476Z,6.20
2017-12-08T06:34:11.588Z,6.87
2017-12-08T06:35:13.339Z,8.03
2017-12-08T06:36:14.754Z,5.13
2017-12-08T06:37:16.243Z,6.60
2017-12-08T06:38:17.722Z,6.50
2017-12-08T06:39:19.058Z,5.87
2017-12-08T06:40:20.755Z,8.30
2017-12-08T06:41:22.206Z,5.47
2017-12-08T06:42:23.664Z,4.37
2017-12-08T06:43:25.108Z,3.97
2017-12-08T06:44:26.475Z,4.33
2017-12-08T06:45:28.036Z,3.67
2017-12-08T06:46:29.647Z,4.20
2017-12-08T06:47:31.080Z,3.20
2017-12-08T06:48:32.520Z,3.50
2017-12-08T06:49:33.904Z,2.80
2017-12-08T06:50:35.710Z,4.70
2017-12-08T06:51:37.146Z,4.23
2017-12-08T06:52:38.662Z,6.47
2017-12-08T06:53:40.098Z,7.60
2017-12-08T06:54:42.274Z,7.30
2017-12-08T06:55:44.495Z,8.60
2017-12-08T06:56:46.085Z,10.30
2017-12-08T06:57:47.493Z,11.73
2017-12-08T06:58:48.900Z,12.13
2017-12-08T06:59:51.148Z,11.80
2017-12-08T07:00:53.061Z,11.67
2017-12-08T07:01:54.407Z,11.20
2017-12-08T07:02:55.832Z,12.80
2017-12-08T07:03:57.255Z,12.30
2017-12-08T07:04:59.421Z,10.50
2017-12-08T07:06:01.714Z,9.97
2017-12-08T07:07:03.172Z,9.83
2017-12-08T07:08:04.651Z,8.87
2017-12-08T07:09:06.113Z,8.73
2017-12-08T07:10:07.527Z,7.83
2017-12-08T07:11:09.327Z,9.93
2017-12-08T07:12:10.866Z,10.27
2017-12-08T07:13:12.411Z,8.80
2017-12-08T07:14:13.962Z,7.27
2017-12-08T07:15:15.591Z,5.83
2017-12-08T07:16:17.193Z,6.07
2017-12-08T07:17:18.651Z,6.57
2017-12-08T07:18:20.087Z,7.67
2017-12-08T07:19:21.561Z,6.90
2017-12-08T07:20:23.203Z,5.87
2017-12-08T07:21:24.747Z,8.93
2017-12-08T07:22:26.163Z,8.80
2017-12-08T07:23:27.548Z,9.40
2017-12-08T07:24:29.043Z,8.10
2017-12-08T07:25:31.163Z,7.47
2017-12-08T07:26:33.226Z,7.80
2017-12-08T07:27:34.586Z,7.70
2017-12-08T07:28:35.923Z,6.77
2017-12-08T07:29:37.255Z,6.93
2017-12-08T07:30:38.575Z,6.70
2017-12-08T07:31:40.677Z,7.10
2017-12-08T07:32:42.047Z,6.67
2017-12-08T07:33:44.123Z,7.03
2017-12-08T07:34:45.487Z,7.97
2017-12-08T07:35:46.855Z,8.63
2017-12-08T07:36:48.203Z,7.10
2017-12-08T07:37:49.527Z,8.67
2017-12-08T07:38:50.949Z,9.13
2017-12-08T07:39:52.298Z,10.93
2017-12-08T07:40:53.637Z,9.97
2017-12-08T07:41:55.025Z,9.27
2017-12-08T07:42:57.105Z,9.40
2017-12-08T07:43:58.490Z,8.17
2017-12-08T07:44:59.806Z,8.80
2017-12-08T07:46:01.867Z,9.27
2017-12-08T07:47:03.967Z,9.73
2017-12-08T07:48:05.347Z,8.97
2017-12-08T07:49:06.767Z,10.57
2017-12-08T07:50:08.098Z,10.13
2017-12-08T07:51:09.430Z,11.47
2017-12-08T07:52:10.790Z,12.23
2017-12-08T07:53:12.172Z,13.23
2017-12-08T07:54:14.963Z,13.20
2017-12-08T07:55:17.066Z,13.10
2017-12-08T07:56:18.379Z,11.83
2017-12-08T07:57:20.475Z,10.57
2017-12-08T07:58:21.791Z,10.37
2017-12-08T07:59:23.149Z,10.30
2017-12-08T08:00:24.465Z,9.83
2017-12-08T08:01:26.515Z,12.33
2017-12-08T08:02:27.861Z,12.83
2017-12-08T08:03:29.907Z,12.00
2017-12-08T08:04:31.225Z,10.83
2017-12-08T08:05:34.276Z,10.53
2017-12-08T08:06:35.611Z,12.10
2017-12-08T08:07:36.927Z,12.70
2017-12-08T08:08:38.243Z,10.13
2017-12-08T08:09:39.549Z,9.90
2017-12-08T08:10:40.857Z,9.33
2017-12-08T08:11:42.187Z,9.53
2017-12-08T08:12:43.586Z,9.70
2017-12-08T08:13:44.967Z,10.70
2017-12-08T08:14:46.283Z,9.50
2017-12-08T08:15:47.639Z,10.97
2017-12-08T08:16:49.749Z,9.00
2017-12-08T08:17:52.143Z,11.03
2017-12-08T08:18:53.485Z,11.83
2017-12-08T08:19:54.852Z,10.83
2017-12-08T08:20:56.257Z,9.27
2017-12-08T08:21:58.363Z,10.83
2017-12-08T08:22:59.745Z,10.20
2017-12-08T08:24:01.823Z,9.77
2017-12-08T08:25:03.180Z,9.07
2017-12-08T08:26:04.559Z,9.30
2017-12-08T08:27:05.907Z,9.33
2017-12-08T08:28:07.293Z,10.33
2017-12-08T08:29:09.395Z,9.57
2017-12-08T08:30:10.728Z,8.67
2017-12-08T08:31:12.073Z,10.07
2017-12-08T08:32:13.393Z,9.53
2017-12-08T08:33:14.840Z,9.07
2017-12-08T08:34:16.181Z,7.67
2017-12-08T08:35:17.531Z,7.53
2017-12-08T08:36:18.947Z,8.33
2017-12-08T08:37:20.282Z,7.57
2017-12-08T08:38:21.659Z,5.87
2017-12-08T08:39:23.789Z,7.30
2017-12-08T08:40:25.123Z,6.13
2017-12-08T08:41:26.452Z,6.23
2017-12-08T08:42:27.827Z,5.77
2017-12-08T08:43:29.427Z,5.53
2017-12-08T08:44:30.747Z,7.50
2017-12-08T08:45:32.095Z,8.23
2017-12-08T08:46:33.448Z,9.10
2017-12-08T09:09:46.013Z,9.73
2017-12-08T09:10:47.391Z,10.73
2017-12-08T09:11:49.469Z,11.30
2017-12-08T09:12:50.799Z,10.57
2017-12-08T09:13:52.865Z,8.57
2017-12-08T09:14:55.009Z,7.07
2017-12-08T09:15:56.344Z,8.20
2017-12-08T09:16:57.669Z,6.63
2017-12-08T09:17:58.993Z,4.97
2017-12-08T09:19:00.357Z,4.63
2017-12-08T09:20:01.912Z,5.37
2017-12-08T09:21:03.248Z,6.53
2017-12-08T09:22:04.557Z,6.80
2017-12-08T09:23:05.897Z,6.10
2017-12-08T09:24:07.212Z,5.20
2017-12-08T09:25:09.622Z,6.47
2017-12-08T09:26:10.988Z,6.60
2017-12-08T09:27:12.329Z,7.10
2017-12-08T09:28:14.419Z,13.43
2017-12-08T09:29:15.751Z,32.17
2017-12-08T09:30:17.578Z,22.13
2017-12-08T09:31:18.929Z,21.23
2017-12-08T09:32:20.263Z,29.30
2017-12-08T09:33:21.599Z,33.17
2017-12-08T09:34:22.975Z,37.50
2017-12-08T09:35:24.343Z,40.20
2017-12-08T09:36:26.395Z,41.83
2017-12-08T09:37:27.758Z,33.90
2017-12-08T09:38:29.858Z,22.87
2017-12-08T09:39:31.200Z,16.27
2017-12-08T09:40:32.845Z,19.80
2017-12-08T09:41:34.165Z,20.23
2017-12-08T09:42:35.525Z,19.67
2017-12-08T09:43:36.849Z,15.60
2017-12-08T09:44:38.931Z,12.23
2017-12-08T09:45:40.553Z,13.00
2017-12-08T09:46:42.633Z,13.80
2017-12-08T09:47:44.011Z,12.10
2017-12-08T09:48:45.336Z,10.97
2017-12-08T09:49:46.875Z,10.00
2017-12-08T09:50:48.225Z,13.10
2017-12-08T09:51:49.606Z,12.40
2017-12-08T09:52:50.924Z,12.23
2017-12-08T09:53:52.257Z,14.40
2017-12-08T09:54:53.576Z,12.60
2017-12-08T09:55:54.917Z,11.57
2017-12-08T09:56:56.999Z,13.03
2017-12-08T09:57:58.322Z,12.47
2017-12-08T09:59:00.417Z,11.23
2017-12-08T10:00:01.792Z,12.53
2017-12-08T10:01:03.402Z,11.83
2017-12-08T10:02:04.746Z,11.63
2017-12-08T10:03:06.092Z,12.20
2017-12-08T10:04:07.427Z,13.90
2017-12-08T10:05:08.788Z,14.53
2017-12-08T10:06:10.169Z,14.30
2017-12-08T10:07:11.493Z,17.27
2017-12-08T10:08:12.859Z,16.00
2017-12-08T10:09:14.226Z,17.17
2017-12-08T10:10:16.399Z,15.33
2017-12-08T10:11:18.031Z,15.10
2017-12-08T10:12:20.112Z,16.43
2017-12-08T10:13:21.464Z,18.37
2017-12-08T10:14:22.804Z,21.47
2017-12-08T10:15:24.147Z,19.93
2017-12-08T10:16:25.762Z,21.03
2017-12-08T10:17:27.067Z,21.97
2017-12-08T10:18:28.427Z,21.47
2017-12-08T10:19:29.761Z,21.23
2017-12-08T10:20:31.135Z,21.43
2017-12-08T10:21:33.241Z,20.27
2017-12-08T10:22:34.577Z,17.67
2017-12-08T10:23:35.943Z,21.17
2017-12-08T10:24:37.271Z,25.00
2017-12-08T10:25:38.612Z,28.90
2017-12-08T10:26:40.041Z,28.03
2017-12-08T10:27:41.358Z,17.77
2017-12-08T10:28:42.687Z,16.07
2017-12-08T10:29:44.042Z,15.07
2017-12-08T10:30:45.389Z,17.07
2017-12-08T10:31:47.515Z,12.90
2017-12-08T10:32:48.837Z,11.33
2017-12-08T10:33:50.199Z,11.53
2017-12-08T10:34:51.531Z,9.93
2017-12-08T10:35:52.902Z,8.23
2017-12-08T10:36:54.261Z,6.90
2017-12-08T10:37:55.637Z,5.47
2017-12-08T10:38:57.690Z,5.77
2017-12-08T10:39:59.789Z,5.63
2017-12-08T10:41:01.130Z,5.10
2017-12-08T10:42:03.233Z,4.50
2017-12-08T10:43:04.585Z,4.93
2017-12-08T10:44:05.915Z,6.80
2017-12-08T10:45:07.271Z,5.77
2017-12-08T10:46:08.615Z,4.67
2017-12-08T10:47:09.987Z,4.40
2017-12-08T10:48:11.328Z,4.23
2017-12-08T10:49:12.673Z,4.10
2017-12-08T10:50:14.041Z,3.33
2017-12-08T10:51:15.358Z,3.50
2017-12-08T10:52:16.710Z,3.27
2017-12-08T10:53:18.065Z,3.10
2017-12-08T10:54:19.465Z,2.97
2017-12-08T10:55:20.803Z,3.03
2017-12-08T10:56:22.329Z,3.63
2017-12-08T10:57:23.975Z,3.03
2017-12-08T10:58:25.316Z,3.27
2017-12-08T10:59:26.688Z,3.27
2017-12-08T11:00:51.991Z,3.43
2017-12-08T11:01:53.370Z,3.27
2017-12-08T11:02:55.471Z,3.63
2017-12-08T11:03:56.803Z,3.30
2017-12-08T11:04:58.120Z,3.10
2017-12-08T11:06:00.194Z,3.60
2017-12-08T11:07:01.551Z,3.43
2017-12-08T11:08:03.168Z,3.20
2017-12-08T11:09:05.223Z,3.10
2017-12-08T11:10:07.305Z,4.53
2017-12-08T11:11:08.760Z,3.90
2017-12-08T11:12:10.177Z,4.07
2017-12-08T11:13:12.260Z,5.13
2017-12-08T11:14:13.609Z,4.60
2017-12-08T11:15:14.977Z,4.13
2017-12-08T11:16:16.303Z,3.95
2017-12-08T11:17:17.621Z,3.80
2017-12-08T11:18:19.027Z,3.60
2017-12-08T11:19:20.394Z,4.17
2017-12-08T11:30:01.829Z,2.90
2017-12-08T11:31:03.267Z,4.13
2017-12-08T11:32:04.591Z,5.00
2017-12-08T11:33:06.003Z,2.77
2017-12-08T11:34:07.343Z,7.07
2017-12-08T11:35:09.077Z,24.03
2017-12-08T11:36:10.391Z,14.87
2017-12-08T11:37:11.772Z,9.20
2017-12-08T11:38:13.115Z,8.13
2017-12-08T11:39:14.439Z,4.47
2017-12-08T11:40:15.808Z,8.50
2017-12-08T11:41:17.163Z,5.47
2017-12-08T11:42:18.502Z,8.37
2017-12-08T11:43:19.868Z,73.60
2017-12-08T11:44:21.988Z,117.87
2017-12-08T11:45:24.126Z,78.93
2017-12-08T11:46:25.447Z,48.07
2017-12-08T11:47:27.527Z,36.60
2017-12-08T11:48:28.847Z,32.07
2017-12-08T11:49:30.253Z,38.27
2017-12-08T11:50:31.635Z,54.57
2017-12-08T11:51:33.726Z,99.23
2017-12-08T11:52:35.231Z,59.10
2017-12-08T11:53:36.592Z,39.67
2017-12-08T11:54:38.712Z,33.53
2017-12-08T11:55:40.302Z,20.90
2017-12-08T11:56:42.377Z,11.05
2017-12-08T11:57:43.695Z,6.12
2017-12-08T11:58:45.760Z,3.80
2017-12-08T11:59:47.827Z,3.40
2017-12-08T12:00:49.901Z,4.00
2017-12-08T12:01:51.227Z,3.17
2017-12-08T12:02:53.262Z,3.10
2017-12-08T12:03:54.614Z,2.77
2017-12-08T12:04:56.133Z,2.70
2017-12-08T12:05:57.726Z,2.60
2017-12-08T12:07:04.249Z,2.70
2017-12-08T12:08:05.543Z,2.70
2017-12-08T12:09:07.643Z,9.93
2017-12-08T12:10:08.985Z,5.13
2017-12-08T12:11:10.435Z,5.97
2017-12-08T12:12:12.826Z,3.80
2017-12-08T12:13:15.491Z,3.37
2017-12-08T12:18:44.517Z,2.30
2017-12-08T12:19:45.889Z,3.00
2017-12-08T12:20:47.222Z,2.73
2017-12-08T12:21:48.616Z,3.33
2017-12-08T12:22:49.968Z,3.63
2017-12-08T12:23:51.328Z,2.90
2017-12-08T12:24:52.931Z,2.90
2017-12-08T12:25:54.444Z,2.70
2017-12-08T12:26:55.831Z,2.80
2017-12-08T12:27:58.427Z,2.93
2017-12-08T12:29:04.635Z,3.03
2017-12-08T12:30:10.125Z,2.63
2017-12-08T12:32:31.418Z,2.30
2017-12-08T12:33:33.839Z,4.07
2017-12-08T12:34:35.401Z,2.60
2017-12-08T12:35:36.805Z,2.83
2017-12-08T12:36:38.171Z,3.10
2017-12-08T12:37:39.660Z,3.33
2017-12-08T12:38:41.236Z,3.00
2017-12-08T12:39:43.543Z,3.03
2017-12-08T12:40:47.125Z,3.33
2017-12-08T12:48:08.587Z,4.37
2017-12-08T12:49:21.297Z,3.90
2017-12-08T12:51:36.089Z,3.87
2017-12-08T12:52:37.443Z,3.60
2017-12-08T12:53:38.777Z,3.13
2017-12-08T12:54:40.128Z,2.80
2017-12-08T12:55:41.427Z,3.53
2017-12-08T12:56:43.519Z,2.83
2017-12-08T12:57:44.865Z,3.03
2017-12-08T12:58:46.187Z,3.93
2017-12-08T12:59:48.272Z,4.10
2017-12-08T13:00:49.587Z,3.20
2017-12-08T13:01:51.632Z,3.40
2017-12-08T13:02:53.271Z,3.47
2017-12-08T13:03:54.584Z,3.37
2017-12-08T13:04:55.883Z,3.37
2017-12-08T13:05:57.942Z,3.63
2017-12-08T13:06:59.987Z,3.40
2017-12-08T13:08:01.311Z,3.27
2017-12-08T13:09:04.424Z,3.83
2017-12-08T13:10:05.754Z,3.33
2017-12-08T13:11:07.090Z,3.90
2017-12-08T13:12:09.181Z,3.63
2017-12-08T13:13:10.751Z,3.20
2017-12-08T13:14:12.043Z,3.37
2017-12-08T13:15:14.099Z,2.80
2017-12-08T13:16:16.157Z,3.03
2017-12-08T13:17:17.453Z,2.77
2017-12-08T13:18:18.782Z,2.63
2017-12-08T13:19:20.083Z,2.53
2017-12-08T13:20:21.401Z,3.20
2017-12-08T13:21:22.699Z,3.40
2017-12-08T13:22:24.014Z,3.00
2017-12-08T13:23:26.103Z,2.00
2017-12-08T13:24:27.399Z,2.70
2017-12-08T13:25:28.697Z,2.60
2017-12-08T13:26:30.004Z,2.20
2017-12-08T13:27:32.048Z,2.50
2017-12-08T13:28:33.608Z,2.20
2017-12-08T13:29:35.643Z,2.00
2017-12-08T13:30:36.947Z,2.10
2017-12-08T13:31:38.271Z,2.50
2017-12-08T13:32:39.555Z,3.00
2017-12-08T13:33:41.125Z,2.40
2017-12-08T13:34:42.409Z,2.10
2017-12-08T13:35:43.703Z,1.90
2017-12-08T13:36:45.007Z,2.60
2017-12-08T13:37:46.303Z,2.50
2017-12-08T13:38:47.632Z,2.60
2017-12-08T13:39:48.919Z,2.60
2017-12-08T13:40:50.223Z,2.57
2017-12-08T13:41:51.660Z,2.83
2017-12-08T13:42:52.956Z,2.80
2017-12-08T13:43:54.278Z,2.67
2017-12-08T13:44:56.323Z,2.40
2017-12-08T13:45:57.644Z,2.40
2017-12-08T13:46:58.947Z,2.37
2017-12-08T13:48:00.252Z,2.23
2017-12-08T13:49:01.639Z,2.67
2017-12-08T13:50:02.944Z,2.00
2017-12-08T13:51:04.987Z,2.80
2017-12-08T13:52:06.282Z,2.40
2017-12-08T13:53:19.766Z,2.03
2017-12-08T13:54:33.301Z,2.40
2017-12-08T13:55:46.663Z,2.10
2017-12-08T13:56:57.059Z,2.00
2017-12-08T13:57:58.391Z,1.90
2017-12-08T13:58:59.699Z,1.90
2017-12-08T14:00:01.024Z,2.67
2017-12-08T14:01:03.051Z,8.67
2017-12-08T14:02:04.379Z,8.43
2017-12-08T14:03:05.719Z,21.97
2017-12-08T14:04:07.027Z,21.53
2017-12-08T14:05:08.640Z,27.37
2017-12-08T14:06:10.723Z,21.43
2017-12-08T14:07:12.805Z,13.13
2017-12-08T14:08:14.122Z,15.23
2017-12-08T14:09:16.189Z,13.43
2017-12-08T14:10:17.534Z,7.17
2017-12-08T14:11:19.595Z,4.77
2017-12-08T14:12:21.743Z,3.90
2017-12-08T14:13:23.819Z,3.77
2017-12-08T14:14:25.905Z,2.97
2017-12-08T14:15:27.451Z,2.53
2017-12-08T14:16:28.783Z,2.30
2017-12-08T14:17:30.123Z,2.23
2017-12-08T14:18:31.443Z,3.13
2017-12-08T14:19:33.527Z,2.63
2017-12-08T14:20:34.892Z,2.43